Time;durP1;ratioP1;P1;durP2;ratioP2;P2;SDS_P1;SDS_P2;PMS_P1;PMS_P2;Temp;Humidity;BMP_temperature;BMP_pressure;BME280_temperature;BME280_humidity;BME280_pressure;Samples;Min_cycle;Max_cycle;Signal;HPM_P1;HPM_P2
2021/03/11 00:01:14;;;;;;;;;;;;;;;20.42;40.43;99194.78;3123095;27;115385;-58
2021/03/11 00:02:45;;;;;;;;;;;;;;;20.41;40.89;99196.75;3118964;27;115548;-58
2021/03/11 00:04:16;;;;;;;;;;;;;;;20.39;40.84;99198.28;3119664;27;114913;-58
2021/03/11 00:05:47;;;;;;;;;;;;;;;20.38;40.80;99193.84;3105529;28;115691;-58
2021/03/11 00:07:18;;;;;;;;;;;;;;;20.36;40.69;99180.16;3113747;27;114852;-58
2021/03/11 00:08:50;;;;;;;;;;;;;;;20.37;40.80;99159.38;3117955;27;115315;-58
2021/03/11 00:10:21;;;;;;;;;;;;;;;20.35;40.85;99169.31;3098871;28;115199;-58
2021/03/11 00:11:52;;;;;;;;;;;;;;;20.34;40.87;99156.44;3106201;28;116681;-58
2021/03/11 00:13:24;;;;;;;;;;;;;;;20.31;40.68;99151.53;3110268;28;115576;-59
2021/03/11 00:14:55;;;;;;;;;;;;;;;20.30;40.74;99147.09;3094434;28;116292;-59
2021/03/11 00:16:26;;;;;;;;;;;;;;;20.29;40.51;99151.88;3105744;27;114399;-58
2021/03/11 00:17:57;;;;;;;;;;;;;;;20.26;40.60;99148.94;3117183;27;114709;-58
2021/03/11 00:19:29;;;;;;;;;;;;;;;20.24;40.71;99149.28;3091944;28;114641;-59
2021/03/11 00:21:00;;;;;;;;;;;;;;;20.23;40.78;99139.22;3107292;27;114754;-58
2021/03/11 00:22:37;;;;;;;;;;;;;;;20.22;40.67;99133.97;3118563;27;116117;-59
2021/03/11 00:24:08;;;;;;;;;;;;;;;20.21;40.54;99126.75;3099777;28;115712;-58
2021/03/11 00:25:39;;;;;;;;;;;;;;;20.18;40.63;99121.81;3104833;28;115669;-58
2021/03/11 00:27:10;;;;;;;;;;;;;;;20.18;40.57;99122.63;3105054;28;116367;-58
2021/03/11 00:28:41;;;;;;;;;;;;;;;20.17;40.69;99104.16;3115138;27;115833;-58
2021/03/11 00:30:13;;;;;;;;;;;;;;;20.17;40.75;99101.38;3108021;28;115726;-58
2021/03/11 00:31:44;;;;;;;;;;;;;;;20.16;40.80;99094.16;3103723;28;115988;-58
2021/03/11 00:33:16;;;;;;;;;;;;;;;20.13;40.61;99100.44;3116948;27;115872;-58
2021/03/11 00:34:47;;;;;;;;;;;;;;;20.14;40.75;99099.28;3122124;27;116112;-59
2021/03/11 00:36:18;;;;;;;;;;;;;;;20.12;40.57;99089.59;3108623;28;118231;-58
2021/03/11 00:37:50;;;;;;;;;;;;;;;20.09;40.57;99091.09;3099349;28;113853;-59
2021/03/11 00:39:21;;;;;;;;;;;;;;;20.09;40.79;99084.66;3116293;27;114033;-59
2021/03/11 00:40:52;;;;;;;;;;;;;;;20.07;40.71;99071.03;3119838;27;113729;-58
2021/03/11 00:42:23;;;;;;;;;;;;;;;20.06;40.78;99060.97;3105733;28;114069;-58
2021/03/11 00:43:54;;;;;;;;;;;;;;;20.05;40.60;99062.13;3114433;27;113954;-59
2021/03/11 00:45:26;;;;;;;;;;;;;;;20.08;40.73;99049.41;3107026;28;113926;-58
2021/03/11 00:46:57;;;;;;;;;;;;;;;20.07;40.57;99047.78;3116841;27;114479;-58
2021/03/11 00:48:28;;;;;;;;;;;;;;;20.05;40.53;99039.69;3121669;27;113891;-58
2021/03/11 00:49:59;;;;;;;;;;;;;;;20.03;40.96;99038.44;3122715;27;113822;-58
2021/03/11 00:51:30;;;;;;;;;;;;;;;20.01;40.96;99041.56;3121759;27;114109;-58
2021/03/11 00:53:02;;;;;;;;;;;;;;;20.01;40.93;99044.38;3122621;27;114159;-59
2021/03/11 00:54:33;;;;;;;;;;;;;;;20.02;41.29;99051.63;3122168;27;114076;-59
2021/03/11 00:56:05;;;;;;;;;;;;;;;20.02;41.20;99036.78;3109122;28;113878;-59
2021/03/11 00:57:36;;;;;;;;;;;;;;;20.00;41.17;99023.13;3106385;28;114101;-59
2021/03/11 00:59:07;;;;;;;;;;;;;;;19.99;41.20;99025.09;3117543;27;117269;-58
2021/03/11 01:00:38;;;;;;;;;;;;;;;19.99;41.14;99033.50;3123216;27;115499;-59
2021/03/11 01:02:09;;;;;;;;;;;;;;;19.98;41.32;99026.28;3119702;27;115138;-58
2021/03/11 01:03:40;;;;;;;;;;;;;;;19.94;41.36;99016.94;3107367;28;115191;-58
2021/03/11 01:05:12;;;;;;;;;;;;;;;19.96;41.52;99014.59;3103507;28;114713;-59
2021/03/11 01:06:43;;;;;;;;;;;;;;;19.95;41.45;99010.16;3097082;28;115290;-58
2021/03/11 01:08:14;;;;;;;;;;;;;;;19.92;41.65;99013.69;3117993;27;115075;-59
2021/03/11 01:09:45;;;;;;;;;;;;;;;19.92;41.82;99024.06;3107782;28;115232;-58
2021/03/11 01:11:17;;;;;;;;;;;;;;;19.90;41.60;98996.38;3118003;27;115894;-59
2021/03/11 01:12:48;;;;;;;;;;;;;;;19.89;41.79;99002.34;3107767;28;115062;-59
2021/03/11 01:14:19;;;;;;;;;;;;;;;19.88;41.72;99001.53;3093116;28;115329;-58
2021/03/11 01:15:51;;;;;;;;;;;;;;;19.89;41.74;99007.97;3099070;28;115201;-58
2021/03/11 01:17:22;;;;;;;;;;;;;;;19.88;41.95;99009.94;3115624;27;115062;-59
2021/03/11 01:18:54;;;;;;;;;;;;;;;19.87;42.18;98985.06;3125721;27;115642;-58
2021/03/11 01:20:25;;;;;;;;;;;;;;;19.88;41.95;98995.09;3119789;27;115854;-59
2021/03/11 01:21:56;;;;;;;;;;;;;;;19.84;42.37;98989.41;3115230;27;115649;-59
2021/03/11 01:23:27;;;;;;;;;;;;;;;19.79;42.49;98998.03;3118224;27;116650;-59
2021/03/11 01:24:58;;;;;;;;;;;;;;;19.80;42.70;98985.66;3117561;27;115900;-58
2021/03/11 01:26:29;;;;;;;;;;;;;;;19.80;42.50;98996.06;3114485;27;115725;-59
2021/03/11 01:28:00;;;;;;;;;;;;;;;19.79;42.69;98981.22;3120498;27;115976;-58
2021/03/11 01:29:32;;;;;;;;;;;;;;;19.78;42.50;98984.38;3123010;27;115673;-58
2021/03/11 01:31:03;;;;;;;;;;;;;;;19.77;42.71;98993.94;3123715;27;115821;-59
2021/03/11 01:32:34;;;;;;;;;;;;;;;19.78;42.59;98976.78;3108341;28;115644;-58
2021/03/11 01:34:05;;;;;;;;;;;;;;;19.74;42.59;98987.06;3118409;27;114710;-58
2021/03/11 01:35:37;;;;;;;;;;;;;;;19.73;42.47;98985.41;3122993;27;114882;-58
2021/03/11 01:37:08;;;;;;;;;;;;;;;19.74;42.29;98973.06;3107576;28;115994;-58
2021/03/11 01:38:39;;;;;;;;;;;;;;;19.75;42.28;98985.91;3113060;27;114858;-58
2021/03/11 01:40:10;;;;;;;;;;;;;;;19.72;42.69;98974.56;3111839;28;115775;-59
2021/03/11 01:41:41;;;;;;;;;;;;;;;19.72;42.62;98986.59;3117921;27;113938;-58
2021/03/11 01:43:12;;;;;;;;;;;;;;;19.72;42.81;98963.34;3122753;27;113724;-59
2021/03/11 01:44:44;;;;;;;;;;;;;;;19.69;42.41;98995.69;3104562;28;114040;-59
2021/03/11 01:46:15;;;;;;;;;;;;;;;19.69;42.90;98989.28;3115900;27;113764;-59
2021/03/11 01:47:46;;;;;;;;;;;;;;;19.70;42.18;98982.50;3106994;28;113814;-58
2021/03/11 01:49:18;;;;;;;;;;;;;;;19.69;42.45;98967.69;3114657;27;114630;-59
2021/03/11 01:50:49;;;;;;;;;;;;;;;19.67;42.40;98972.00;3122475;27;113660;-59
2021/03/11 01:52:20;;;;;;;;;;;;;;;19.65;42.70;98971.53;3104286;28;113836;-59
2021/03/11 01:53:52;;;;;;;;;;;;;;;19.66;42.29;98976.81;3118750;27;114244;-59
2021/03/11 01:55:24;;;;;;;;;;;;;;;19.65;42.34;98982.75;3093960;28;114372;-59
2021/03/11 01:56:55;;;;;;;;;;;;;;;19.64;42.21;98965.13;3112894;27;113956;-59
2021/03/11 01:58:26;;;;;;;;;;;;;;;19.65;42.10;98963.94;3103083;28;113904;-59
2021/03/11 01:59:58;;;;;;;;;;;;;;;19.62;42.21;98997.47;3112049;27;113698;-59
2021/03/11 02:01:29;;;;;;;;;;;;;;;19.60;42.20;98972.59;3123067;27;114066;-59
2021/03/11 02:03:00;;;;;;;;;;;;;;;19.59;42.31;98972.94;3098508;28;113958;-59
2021/03/11 02:04:32;;;;;;;;;;;;;;;19.57;42.00;98956.50;3107667;27;115081;-59
2021/03/11 02:06:03;;;;;;;;;;;;;;;19.57;42.01;98953.69;3120005;27;115260;-59
2021/03/11 02:07:34;;;;;;;;;;;;;;;19.56;42.16;98954.03;3123532;27;115314;-59
2021/03/11 02:09:05;;;;;;;;;;;;;;;19.57;41.92;98955.66;3122348;27;115563;-59
2021/03/11 02:10:37;;;;;;;;;;;;;;;19.56;42.10;98960.44;3121918;27;115206;-58
2021/03/11 02:12:11;;;;;;;;;;;;;;;19.55;42.03;98944.81;3111408;28;115198;-59
2021/03/11 02:13:47;;;;;;;;;;;;;;;19.53;41.86;98953.56;3120414;27;114624;-59
2021/03/11 02:15:23;;;;;;;;;;;;;;;19.51;42.06;98943.88;3098918;28;115134;-59
2021/03/11 02:16:56;;;;;;;;;;;;;;;19.51;41.79;98946.69;3095278;28;115825;-59
2021/03/11 02:18:31;;;;;;;;;;;;;;;19.51;41.69;98933.50;3107673;28;115247;-59
2021/03/11 02:20:02;;;;;;;;;;;;;;;19.51;41.62;98929.88;3104599;28;114288;-59
2021/03/11 02:21:44;;;;;;;;;;;;;;;19.50;41.69;98931.84;3117329;27;115056;-59
2021/03/11 02:23:24;;;;;;;;;;;;;;;19.50;41.89;98931.03;3120901;27;115120;-59
2021/03/11 02:25:05;;;;;;;;;;;;;;;19.50;41.96;98919.81;3123693;27;115116;-59
2021/03/11 02:26:49;;;;;;;;;;;;;;;19.49;41.98;98937.78;3115534;27;115897;-58
2021/03/11 02:28:21;;;;;;;;;;;;;;;19.48;41.98;98910.97;3111160;27;114686;-58
2021/03/11 02:29:53;;;;;;;;;;;;;;;19.47;41.63;98912.13;3114172;27;116030;-59
2021/03/11 02:31:25;;;;;;;;;;;;;;;19.44;41.84;98905.25;3117506;27;115861;-59
2021/03/11 02:32:57;;;;;;;;;;;;;;;19.45;41.88;98904.06;3101969;28;115924;-59
2021/03/11 02:34:32;;;;;;;;;;;;;;;19.45;41.91;98906.06;3119172;27;115115;-59
2021/03/11 02:36:04;;;;;;;;;;;;;;;19.45;41.80;98890.06;3111131;27;114661;-59
2021/03/11 02:37:39;;;;;;;;;;;;;;;19.43;41.96;98889.63;3109470;28;114905;-59
2021/03/11 02:39:13;;;;;;;;;;;;;;;19.43;41.86;98895.22;3120433;27;115899;-59
2021/03/11 02:40:46;;;;;;;;;;;;;;;19.43;41.97;98889.63;3122712;27;115786;-58
2021/03/11 02:42:19;;;;;;;;;;;;;;;19.42;41.89;98873.94;3124772;27;115991;-58
2021/03/11 02:43:50;;;;;;;;;;;;;;;19.41;41.66;98860.28;3123765;27;115732;-59
2021/03/11 02:45:23;;;;;;;;;;;;;;;19.40;41.89;98869.84;3094806;28;115666;-59
2021/03/11 02:46:55;;;;;;;;;;;;;;;19.41;42.02;98863.91;3099190;28;115718;-58
2021/03/11 02:48:26;;;;;;;;;;;;;;;19.38;41.96;98884.22;3120533;27;114273;-59
2021/03/11 02:49:58;;;;;;;;;;;;;;;19.37;41.86;98853.75;3123465;27;114092;-59
2021/03/11 02:51:30;;;;;;;;;;;;;;;19.38;41.79;98863.81;3122747;27;114131;-59
2021/03/11 02:53:03;;;;;;;;;;;;;;;19.35;42.08;98870.91;3124861;27;113873;-59
2021/03/11 02:54:34;;;;;;;;;;;;;;;19.35;41.98;98879.31;3106739;28;114009;-59
2021/03/11 02:56:06;;;;;;;;;;;;;;;19.38;41.70;98861.00;3120065;27;113872;-59
2021/03/11 02:57:38;;;;;;;;;;;;;;;19.35;42.03;98920.53;3123118;27;114201;-59
2021/03/11 02:59:10;;;;;;;;;;;;;;;19.34;41.82;98858.09;3099786;28;113786;-59
2021/03/11 03:00:41;;;;;;;;;;;;;;;19.30;41.82;98861.94;3114294;27;113867;-58
2021/03/11 03:02:14;;;;;;;;;;;;;;;19.29;41.74;98866.72;3124258;27;113856;-59
2021/03/11 03:03:47;;;;;;;;;;;;;;;19.30;41.62;98857.16;3125080;27;113607;-59
2021/03/11 03:05:19;;;;;;;;;;;;;;;19.29;41.56;98847.13;3122356;27;113873;-59
2021/03/11 03:06:51;;;;;;;;;;;;;;;19.28;41.42;98845.50;3110311;28;113842;-59
2021/03/11 03:08:23;;;;;;;;;;;;;;;19.26;41.52;98847.03;3115923;27;113938;-59
2021/03/11 03:09:55;;;;;;;;;;;;;;;19.27;41.51;98821.44;3123401;27;114179;-59
2021/03/11 03:11:27;;;;;;;;;;;;;;;19.27;41.69;98826.22;3101524;28;115664;-59
2021/03/11 03:13:01;;;;;;;;;;;;;;;19.25;41.56;98837.00;3114711;27;114535;-59
2021/03/11 03:14:32;;;;;;;;;;;;;;;19.24;41.67;98830.56;3124275;27;115506;-58
2021/03/11 03:16:04;;;;;;;;;;;;;;;19.24;41.82;98829.75;3118975;27;114583;-59
2021/03/11 03:17:37;;;;;;;;;;;;;;;19.21;41.64;98824.88;3106782;28;116372;-59
2021/03/11 03:19:10;;;;;;;;;;;;;;;19.22;41.53;98837.66;3117903;27;115209;-59
2021/03/11 03:20:42;;;;;;;;;;;;;;;19.22;41.70;98826.47;3109438;28;114131;-59
2021/03/11 03:22:14;;;;;;;;;;;;;;;19.20;41.85;98823.22;3099734;28;115129;-59
2021/03/11 03:23:46;;;;;;;;;;;;;;;19.20;41.42;98856.81;3094501;28;115734;-59
2021/03/11 03:25:18;;;;;;;;;;;;;;;19.20;41.50;98840.84;3115187;27;114705;-59
2021/03/11 03:26:49;;;;;;;;;;;;;;;19.17;41.58;98819.13;3110817;28;114835;-58
2021/03/11 03:28:20;;;;;;;;;;;;;;;19.17;41.29;98802.31;3119534;27;115167;-59
2021/03/11 03:29:51;;;;;;;;;;;;;;;19.17;41.44;98819.13;3128129;27;114944;-59
2021/03/11 03:31:22;;;;;;;;;;;;;;;19.16;41.28;98795.13;3110754;28;115832;-59
2021/03/11 03:32:54;;;;;;;;;;;;;;;19.14;41.49;98803.03;3120002;27;114781;-59
2021/03/11 03:34:25;;;;;;;;;;;;;;;19.10;41.49;98777.75;3102956;28;114725;-59
2021/03/11 03:35:56;;;;;;;;;;;;;;;19.12;41.48;98793.38;3118957;27;115773;-59
2021/03/11 03:37:28;;;;;;;;;;;;;;;19.12;41.28;98811.00;3118162;27;114594;-59
2021/03/11 03:38:59;;;;;;;;;;;;;;;19.11;41.22;98800.97;3118880;27;115962;-59
2021/03/11 03:40:30;;;;;;;;;;;;;;;19.10;41.34;98793.72;3124246;27;115915;-59
2021/03/11 03:42:05;;;;;;;;;;;;;;;19.09;41.07;98806.06;3124016;27;116337;-59
2021/03/11 03:43:39;;;;;;;;;;;;;;;19.08;41.55;98805.25;3123482;27;115786;-58
2021/03/11 03:45:13;;;;;;;;;;;;;;;19.08;41.34;98832.44;3110178;28;115867;-58
2021/03/11 03:46:45;;;;;;;;;;;;;;;19.08;40.80;98821.22;3120076;27;115839;-60
2021/03/11 03:48:21;;;;;;;;;;;;;;;19.07;40.92;98794.44;3121650;27;114837;-58
2021/03/11 03:49:52;;;;;;;;;;;;;;;19.06;41.10;98817.97;3115812;27;115653;-59
2021/03/11 03:51:27;;;;;;;;;;;;;;;19.03;40.95;98796.31;3123421;27;116106;-58
2021/03/11 03:53:02;;;;;;;;;;;;;;;19.04;40.81;98793.13;3126121;27;115757;-58
2021/03/11 03:54:36;;;;;;;;;;;;;;;19.02;41.09;98817.88;3117534;27;114199;-59
2021/03/11 03:56:09;;;;;;;;;;;;;;;19.02;40.92;98819.84;3117943;27;113849;-59
2021/03/11 03:57:42;;;;;;;;;;;;;;;19.03;41.08;98796.31;3105919;28;113896;-59
2021/03/11 03:59:15;;;;;;;;;;;;;;;19.00;40.99;98786.59;3117584;27;113907;-59
2021/03/11 04:00:47;;;;;;;;;;;;;;;19.01;40.92;98793.03;3123997;27;113715;-59
2021/03/11 04:02:20;;;;;;;;;;;;;;;19.00;40.85;98783.81;3110123;28;114206;-59
2021/03/11 04:03:51;;;;;;;;;;;;;;;19.00;41.07;98786.59;3116117;27;114072;-59
2021/03/11 04:05:23;;;;;;;;;;;;;;;18.98;41.23;98780.56;3123999;27;113846;-59
2021/03/11 04:06:55;;;;;;;;;;;;;;;18.98;41.05;98774.97;3109698;28;113727;-59
2021/03/11 04:08:26;;;;;;;;;;;;;;;18.98;40.88;98760.97;3120321;27;113877;-58
2021/03/11 04:09:58;;;;;;;;;;;;;;;18.99;40.91;98775.75;3122856;27;114118;-59
2021/03/11 04:11:30;;;;;;;;;;;;;;;18.96;40.87;98787.66;3098837;28;114180;-58
2021/03/11 04:13:01;;;;;;;;;;;;;;;18.97;40.94;98769.72;3100775;28;114219;-59
2021/03/11 04:14:33;;;;;;;;;;;;;;;18.93;41.20;98785.56;3098276;28;113735;-58
2021/03/11 04:16:05;;;;;;;;;;;;;;;18.94;40.90;98773.22;3095700;28;114028;-59
2021/03/11 04:17:36;;;;;;;;;;;;;;;18.93;40.84;98813.56;3103826;28;115183;-59
2021/03/11 04:19:08;;;;;;;;;;;;;;;18.92;40.92;98807.13;3106214;28;115192;-59
2021/03/11 04:20:39;;;;;;;;;;;;;;;18.92;41.08;98806.31;3118240;27;115141;-59
2021/03/11 04:22:10;;;;;;;;;;;;;;;18.93;41.12;98805.16;3123856;27;115186;-59
2021/03/11 04:23:43;;;;;;;;;;;;;;;18.92;41.14;98781.97;3110128;28;115515;-59
2021/03/11 04:25:17;;;;;;;;;;;;;;;18.90;41.00;98777.84;3120020;27;115216;-59
2021/03/11 04:26:49;;;;;;;;;;;;;;;18.90;40.84;98775.88;3123350;27;115306;-59
2021/03/11 04:28:20;;;;;;;;;;;;;;;18.89;41.19;98763.09;3097495;28;115237;-59
2021/03/11 04:29:51;;;;;;;;;;;;;;;18.89;40.93;98771.47;3108255;27;114269;-59
2021/03/11 04:31:23;;;;;;;;;;;;;;;18.89;40.93;98773.44;3115473;27;115030;-59
2021/03/11 04:32:54;;;;;;;;;;;;;;;18.86;41.00;98772.16;3119852;27;114183;-59
2021/03/11 04:34:26;;;;;;;;;;;;;;;18.88;40.79;98783.00;3109804;28;114707;-59
2021/03/11 04:35:57;;;;;;;;;;;;;;;18.85;40.94;98750.94;3101767;28;114133;-59
2021/03/11 04:37:29;;;;;;;;;;;;;;;18.85;40.92;98764.91;3109877;27;115683;-59
2021/03/11 04:39:01;;;;;;;;;;;;;;;18.85;40.79;98795.69;3119487;27;115695;-59
2021/03/11 04:40:33;;;;;;;;;;;;;;;18.83;40.49;98747.69;3102712;28;116414;-58
2021/03/11 04:42:05;;;;;;;;;;;;;;;18.84;40.81;98766.13;3119188;27;114738;-60
2021/03/11 04:43:36;;;;;;;;;;;;;;;18.81;40.49;98733.22;3123536;27;115856;-59
2021/03/11 04:45:08;;;;;;;;;;;;;;;18.83;40.32;98746.88;3109582;28;115830;-59
2021/03/11 04:46:39;;;;;;;;;;;;;;;18.81;40.87;98752.81;3105925;28;115873;-59
2021/03/11 04:48:11;;;;;;;;;;;;;;;18.81;40.49;98766.78;3107928;27;116078;-59
2021/03/11 04:49:42;;;;;;;;;;;;;;;18.79;40.56;98785.94;3105608;28;115751;-59
2021/03/11 04:51:16;;;;;;;;;;;;;;;18.78;40.36;98797.44;3117863;27;116273;-59
2021/03/11 04:52:47;;;;;;;;;;;;;;;18.78;40.43;98781.50;3118366;27;114524;-59
2021/03/11 04:54:19;;;;;;;;;;;;;;;18.75;40.61;98790.59;3108415;28;115827;-59
2021/03/11 04:55:57;;;;;;;;;;;;;;;18.75;40.21;98784.19;3119833;27;115812;-59
2021/03/11 04:57:28;;;;;;;;;;;;;;;18.73;40.34;98784.50;3113258;28;116536;-59
2021/03/11 04:59:00;;;;;;;;;;;;;;;18.74;40.34;98780.56;3105055;28;113888;-59
2021/03/11 05:00:32;;;;;;;;;;;;;;;18.73;40.68;98800.47;3107206;28;114350;-59
2021/03/11 05:02:04;;;;;;;;;;;;;;;18.73;40.77;98803.28;3107991;28;114241;-59
2021/03/11 05:03:36;;;;;;;;;;;;;;;18.72;40.57;98796.03;3119480;27;113897;-58
2021/03/11 05:05:09;;;;;;;;;;;;;;;18.72;40.64;98804.44;3122501;27;113783;-59
2021/03/11 05:06:40;;;;;;;;;;;;;;;18.68;40.85;98795.94;3121517;27;113840;-59
2021/03/11 05:08:11;;;;;;;;;;;;;;;18.69;40.83;98797.56;3123883;27;113742;-59
2021/03/11 05:09:42;;;;;;;;;;;;;;;18.67;41.07;98783.09;3104195;28;114001;-59
2021/03/11 05:11:14;;;;;;;;;;;;;;;18.66;40.89;98792.69;3118953;27;113804;-59
2021/03/11 05:12:45;;;;;;;;;;;;;;;18.69;40.83;98783.59;3109421;28;113774;-59
2021/03/11 05:14:16;;;;;;;;;;;;;;;18.67;40.99;98777.50;3114792;27;113773;-59
2021/03/11 05:15:48;;;;;;;;;;;;;;;18.68;40.79;98779.16;3123570;27;113754;-59
2021/03/11 05:17:19;;;;;;;;;;;;;;;18.67;40.73;98794.28;3123355;27;113760;-59
2021/03/11 05:18:50;;;;;;;;;;;;;;;18.63;40.70;98777.41;3113222;27;113721;-59
2021/03/11 05:20:22;;;;;;;;;;;;;;;18.65;40.69;98771.47;3112229;28;113687;-61
2021/03/11 05:21:53;;;;;;;;;;;;;;;18.64;40.61;98767.03;3112792;27;114449;-60
2021/03/11 05:23:24;;;;;;;;;;;;;;;18.65;40.66;98763.06;3119098;27;115856;-60
2021/03/11 05:24:55;;;;;;;;;;;;;;;18.63;40.63;98759.78;3120428;27;114574;-59
2021/03/11 05:26:27;;;;;;;;;;;;;;;18.62;40.77;98741.41;3121409;27;115583;-59
2021/03/11 05:27:58;;;;;;;;;;;;;;;18.63;40.65;98757.81;3109831;28;115084;-60
2021/03/11 05:29:29;;;;;;;;;;;;;;;18.60;40.86;98740.94;3119216;27;115196;-59
2021/03/11 05:31:00;;;;;;;;;;;;;;;18.60;40.73;98730.56;3109440;28;115160;-59
2021/03/11 05:32:31;;;;;;;;;;;;;;;18.59;40.94;98742.09;3095374;28;115074;-58
2021/03/11 05:34:03;;;;;;;;;;;;;;;18.60;40.86;98761.31;3114799;27;116348;-59
2021/03/11 05:35:34;;;;;;;;;;;;;;;18.59;40.84;98761.66;3122626;27;115554;-59
2021/03/11 05:37:05;;;;;;;;;;;;;;;18.60;40.53;98757.72;3107224;28;115182;-58
2021/03/11 05:38:36;;;;;;;;;;;;;;;18.57;40.82;98747.22;3100631;28;115198;-59
2021/03/11 05:40:08;;;;;;;;;;;;;;;18.56;41.14;98777.16;3115915;27;115176;-59
2021/03/11 05:41:41;;;;;;;;;;;;;;;18.57;40.87;98744.44;3124887;27;115231;-60
2021/03/11 05:43:13;;;;;;;;;;;;;;;18.58;40.99;98752.44;3114816;27;115710;-59
2021/03/11 05:44:45;;;;;;;;;;;;;;;18.58;40.99;98757.22;3110738;28;115686;-59
2021/03/11 05:46:17;;;;;;;;;;;;;;;18.57;41.24;98748.06;3098763;28;115785;-59
2021/03/11 05:47:49;;;;;;;;;;;;;;;18.56;40.94;98777.16;3104391;28;115700;-59
2021/03/11 05:49:22;;;;;;;;;;;;;;;18.56;41.02;98754.81;3119540;27;115790;-59
2021/03/11 05:50:54;;;;;;;;;;;;;;;18.58;41.42;98762.81;3124704;27;115751;-58
2021/03/11 05:52:26;;;;;;;;;;;;;;;18.61;41.42;98759.34;3124532;27;115934;-58
2021/03/11 05:53:58;;;;;;;;;;;;;;;18.63;41.39;98746.63;3111088;28;115375;-59
2021/03/11 05:55:29;;;;;;;;;;;;;;;18.69;41.59;98752.00;3107800;28;115887;-58
2021/03/11 05:57:00;;;;;;;;;;;;;;;18.72;41.53;98749.31;3119525;27;114799;-59
2021/03/11 05:58:32;;;;;;;;;;;;;;;18.75;41.58;98757.03;3126001;27;115729;-58
2021/03/11 06:00:05;;;;;;;;;;;;;;;18.79;41.36;98774.72;3125563;27;117926;-58
2021/03/11 06:01:36;;;;;;;;;;;;;;;18.86;41.76;98769.34;3124242;27;115726;-59
2021/03/11 06:03:07;;;;;;;;;;;;;;;18.89;41.68;98760.28;3106558;28;115948;-59
2021/03/11 06:04:39;;;;;;;;;;;;;;;18.94;41.56;98764.81;3115183;27;113692;-59
2021/03/11 06:06:10;;;;;;;;;;;;;;;18.96;41.50;98766.09;3117067;27;113790;-59
2021/03/11 06:07:42;;;;;;;;;;;;;;;19.01;41.40;98771.47;3118858;27;113972;-59
2021/03/11 06:09:16;;;;;;;;;;;;;;;19.05;41.35;98755.59;3122813;27;113941;-59
2021/03/11 06:10:51;;;;;;;;;;;;;;;19.09;41.29;98762.13;3113178;27;113738;-59
2021/03/11 06:12:23;;;;;;;;;;;;;;;19.14;41.58;98763.03;3120705;27;114143;-59
2021/03/11 06:13:55;;;;;;;;;;;;;;;19.20;41.41;98767.25;3100294;28;113793;-59
2021/03/11 06:15:35;;;;;;;;;;;;;;;19.23;41.68;98746.91;3094441;28;114036;-60
2021/03/11 06:17:06;;;;;;;;;;;;;;;19.29;41.62;98753.91;3107888;28;113893;-59
2021/03/11 06:18:38;;;;;;;;;;;;;;;19.34;41.87;98756.47;3118460;27;113899;-59
2021/03/11 06:20:10;;;;;;;;;;;;;;;19.40;41.82;98755.84;3097849;28;113830;-60
2021/03/11 06:21:43;;;;;;;;;;;;;;;19.45;41.48;98763.22;3111600;27;114076;-59
2021/03/11 06:23:15;;;;;;;;;;;;;;;19.50;41.21;98755.41;3117283;27;113761;-59
2021/03/11 06:24:46;;;;;;;;;;;;;;;19.54;40.94;98750.72;3114360;28;113809;-60
2021/03/11 06:26:17;;;;;;;;;;;;;;;19.60;40.79;98736.47;3107953;28;115184;-58
2021/03/11 06:27:48;;;;;;;;;;;;;;;19.63;40.33;98733.75;3113637;27;115093;-59
2021/03/11 06:29:34;;;;;;;;;;;;;;;19.70;40.51;98733.16;3120094;27;115132;-59
2021/03/11 06:31:16;;;;;;;;;;;;;;;19.74;40.41;98760.09;3110050;28;115304;-59
2021/03/11 06:32:51;;;;;;;;;;;;;;;19.79;40.30;98762.66;3114100;27;115674;-58
2021/03/11 06:34:22;;;;;;;;;;;;;;;19.83;39.83;98777.59;3122297;27;115150;-59
2021/03/11 06:35:54;;;;;;;;;;;;;;;19.87;39.91;98800.91;3109102;28;115231;-59
2021/03/11 06:37:34;;;;;;;;;;;;;;;19.92;40.14;98785.84;3115451;27;115493;-59
2021/03/11 06:39:21;;;;;;;;;;;;;;;19.98;39.75;98774.03;3104013;28;115159;-59
2021/03/11 06:40:52;;;;;;;;;;;;;;;20.02;39.40;98753.69;3100801;28;115285;-59
2021/03/11 06:42:24;;;;;;;;;;;;;;;20.07;39.76;98773.84;3111268;27;115244;-59
2021/03/11 06:43:57;;;;;;;;;;;;;;;20.11;39.64;98768.34;3106567;28;115174;-59
2021/03/11 06:45:29;;;;;;;;;;;;;;;20.14;39.49;98767.63;3105557;28;114103;-58
2021/03/11 06:47:01;;;;;;;;;;;;;;;20.19;39.30;98753.34;3120792;27;115174;-59
2021/03/11 06:48:32;;;;;;;;;;;;;;;20.25;39.18;98763.13;3108895;28;115655;-58
2021/03/11 06:50:04;;;;;;;;;;;;;;;20.27;39.05;98786.81;3117633;27;115975;-59
2021/03/11 06:51:35;;;;;;;;;;;;;;;20.32;39.01;98772.56;3124715;27;115641;-59
2021/03/11 06:53:06;;;;;;;;;;;;;;;20.36;39.28;98775.47;3114385;27;115706;-58
2021/03/11 06:54:47;;;;;;;;;;;;;;;20.40;38.84;98810.03;3122773;27;116081;-58
2021/03/11 06:56:19;;;;;;;;;;;;;;;20.44;38.93;98790.50;3116561;27;115939;-59
2021/03/11 06:57:50;;;;;;;;;;;;;;;20.48;38.85;98783.00;3097387;28;114926;-59
2021/03/11 06:59:23;;;;;;;;;;;;;;;20.50;38.44;98764.63;3114523;27;114961;-59
2021/03/11 07:01:04;;;;;;;;;;;;;;;20.53;38.43;98783.56;3109439;28;115036;-58
2021/03/11 07:02:35;;;;;;;;;;;;;;;20.57;38.22;98792.06;3117554;27;115714;-59
2021/03/11 07:04:20;;;;;;;;;;;;;;;20.61;38.49;98785.34;3115614;27;116031;-59
2021/03/11 07:05:51;;;;;;;;;;;;;;;20.64;38.29;98784.63;3110513;28;115958;-59
2021/03/11 07:07:24;;;;;;;;;;;;;;;20.68;37.93;98821.19;3119896;27;115743;-59
2021/03/11 07:08:56;;;;;;;;;;;;;;;20.69;38.22;98818.03;3124554;27;115797;-58
2021/03/11 07:10:27;;;;;;;;;;;;;;;20.73;37.42;98802.09;3109434;28;115991;-58
2021/03/11 07:11:59;;;;;;;;;;;;;;;20.76;37.51;98823.00;3105455;28;114264;-59
2021/03/11 07:13:40;;;;;;;;;;;;;;;20.78;37.50;98801.81;3104507;28;114136;-58
2021/03/11 07:15:11;;;;;;;;;;;;;;;20.82;37.92;98847.63;3119478;27;114222;-59
2021/03/11 07:16:42;;;;;;;;;;;;;;;20.85;37.52;98816.03;3122003;27;114567;-58
2021/03/11 07:18:21;;;;;;;;;;;;;;;20.89;37.62;98823.75;3122818;27;113694;-59
2021/03/11 07:20:02;;;;;;;;;;;;;;;20.91;37.60;98838.22;3121039;27;113850;-59
2021/03/11 07:21:40;;;;;;;;;;;;;;;20.95;37.88;98845.53;3117596;27;113807;-60
2021/03/11 07:23:12;;;;;;;;;;;;;;;20.98;37.47;98858.06;3123917;27;113791;-58
2021/03/11 07:24:43;;;;;;;;;;;;;;;21.02;37.48;98839.31;3106397;28;113757;-59
2021/03/11 07:26:15;;;;;;;;;;;;;;;21.05;37.17;98869.47;3107014;28;113956;-60
2021/03/11 07:27:49;;;;;;;;;;;;;;;21.07;36.99;98850.28;3106170;28;113996;-60
2021/03/11 07:29:20;;;;;;;;;;;;;;;21.10;36.97;98872.00;3104928;28;113838;-60
2021/03/11 07:30:52;;;;;;;;;;;;;;;21.13;36.98;98868.50;3110290;28;113866;-59
2021/03/11 07:32:24;;;;;;;;;;;;;;;21.15;37.30;98871.75;3121628;27;114369;-59
2021/03/11 07:33:55;;;;;;;;;;;;;;;21.18;37.50;98879.44;3123623;27;115375;-58
2021/03/11 07:35:28;;;;;;;;;;;;;;;21.21;37.40;98879.53;3120816;27;115047;-59
2021/03/11 07:37:00;;;;;;;;;;;;;;;21.24;37.25;98878.81;3112179;27;114518;-59
2021/03/11 07:38:32;;;;;;;;;;;;;;;21.28;37.04;98913.44;3099155;28;115086;-59
2021/03/11 07:40:04;;;;;;;;;;;;;;;21.31;36.99;98909.06;3101540;28;115121;-59
2021/03/11 07:41:35;;;;;;;;;;;;;;;21.33;36.71;98900.28;3115966;27;115013;-60
2021/03/11 07:43:06;;;;;;;;;;;;;;;21.35;36.95;98912.78;3101082;28;115163;-59
2021/03/11 07:44:38;;;;;;;;;;;;;;;21.39;36.88;98912.88;3108876;28;115011;-59
2021/03/11 07:46:15;;;;;;;;;;;;;;;21.43;37.05;98925.03;3111345;27;116034;-60
2021/03/11 07:47:50;;;;;;;;;;;;;;;21.49;37.52;98931.97;3104926;27;115132;-59
2021/03/11 07:49:21;;;;;;;;;;;;;;;21.55;37.52;98928.53;3105398;28;116877;-59
2021/03/11 07:50:53;;;;;;;;;;;;;;;21.58;36.92;98952.28;3110559;28;114748;-59
2021/03/11 07:52:24;;;;;;;;;;;;;;;21.62;37.12;98954.00;3108271;27;114484;-59
2021/03/11 07:53:56;;;;;;;;;;;;;;;21.65;37.03;98950.47;3104356;28;115035;-59